Vb Bretagne — FMHX — position and weather

sailwx.info

Track history (hours):
 
Tides and Currents Weather Stations Pressure Air Temp Water Temp Dewpoint Dewpoint Depression Visibility Wind Speed Wind Dir Waves Ship Positions

Vb Bretagne

Last reported at 2015-Jul-27 10:09 UTC. Time now 2015-Jul-28 17:48 UTC.
Position N 47°16' W 002°12'.

Length 32 m; draft 4.1 m.

Type: Tug. MMSI: 228234700.

Date/timePositionNaut miles runAvg speedWind from/ knotsBaromVisibWave heightAir tempDewpointWater temp
2015-Jul-27 10:09N 47°16' W 002°12'1 0.0
2015-Jul-26 07:14N 47°17' W 002°11'1 0.2
2015-Jul-26 02:16N 47°16' W 002°12'0 0.0
2015-Jul-26 01:12N 47°16' W 002°12'0 0.0
2015-Jul-26 00:23N 47°16' W 002°12'0 0.0
2015-Jul-25 23:20N 47°16' W 002°12'0 0.0
2015-Jul-25 22:17N 47°16' W 002°12'0 0.0
2015-Jul-25 21:05N 47°16' W 002°12'0 0.0
2015-Jul-25 19:24N 47°16' W 002°12'3 2.4
2015-Jul-25 18:18N 47°18' W 002°09'9 0.3
2015-Jul-24 08:29N 47°17' W 001°56'8 8.1
2015-Jul-24 07:33N 47°13' W 001°47'7 6.5
2015-Jul-24 06:33N 47°12' W 001°37'0 0.4
2015-Jul-24 05:33N 47°12' W 001°37'8 7.6
2015-Jul-24 04:32N 47°13' W 001°48'8 8.2
2015-Jul-24 03:33N 47°17' W 001°58'8 8.4
2015-Jul-24 02:33N 47°17' W 002°10'1 1.4
2015-Jul-24 01:33N 47°16' W 002°12'0 0.0
2015-Jul-24 00:33N 47°16' W 002°12'0 0.0
2015-Jul-23 23:33N 47°16' W 002°12'0 0.0
2015-Jul-23 22:33N 47°16' W 002°12'0 0.0
2015-Jul-23 21:33N 47°16' W 002°12'0 0.0
2015-Jul-23 20:33N 47°16' W 002°12'0 0.0
2015-Jul-23 19:32N 47°16' W 002°12'0 0.0
2015-Jul-23 18:32N 47°16' W 002°12'0 0.0
2015-Jul-23 17:08N 47°16' W 002°12'0 0.0
2015-Jul-23 09:24N 47°16' W 002°12'4 4.7
2015-Jul-23 08:28N 47°18' W 002°06'0 0.1
2015-Jul-23 07:33N 47°18' W 002°06'4 3.9
2015-Jul-23 06:27N 47°16' W 002°12'0 0.0
2015-Jul-23 05:31N 47°16' W 002°12'0 0.0
2015-Jul-23 04:30N 47°16' W 002°12'0 0.0
2015-Jul-23 03:32N 47°16' W 002°12'0 0.0
2015-Jul-23 02:32N 47°16' W 002°12'0 0.0
2015-Jul-23 01:25N 47°16' W 002°12'0 0.0
2015-Jul-23 00:23N 47°16' W 002°12'0 0.0
2015-Jul-22 23:12N 47°16' W 002°12'0 0.0
2015-Jul-22 21:22N 47°16' W 002°12'0 0.0
2015-Jul-22 07:16N 47°16' W 002°12'3 4.0
2015-Jul-22 06:33N 47°18' W 002°09'0 0.0
2015-Jul-22 05:25N 47°18' W 002°09'0 0.0
2015-Jul-22 04:32N 47°18' W 002°09'0 0.0
2015-Jul-22 03:33N 47°18' W 002°09'0 0.0
2015-Jul-22 02:26N 47°18' W 002°09'0 0.0
2015-Jul-22 01:33N 47°18' W 002°09'0 0.0
2015-Jul-22 00:33N 47°18' W 002°09'0 0.0
2015-Jul-21 23:33N 47°18' W 002°09'0 0.0
2015-Jul-21 22:33N 47°18' W 002°09'0 0.0
2015-Jul-21 21:33N 47°18' W 002°09'0 0.0
2015-Jul-21 20:31N 47°18' W 002°09'0 0.0
2015-Jul-21 19:31N 47°18' W 002°09'0 0.0
2015-Jul-21 18:32N 47°18' W 002°09'0 0.0
2015-Jul-21 17:33N 47°18' W 002°09'0 0.0
2015-Jul-21 16:33N 47°18' W 002°09'0 0.0
2015-Jul-21 15:33N 47°18' W 002°09'0 0.0
2015-Jul-21 14:33N 47°18' W 002°09'0 0.0
2015-Jul-21 13:32N 47°18' W 002°09'0 0.0
2015-Jul-21 12:33N 47°18' W 002°09'0 0.0
2015-Jul-21 11:32N 47°18' W 002°09'0 0.0
2015-Jul-21 10:33N 47°18' W 002°09'0 0.0
2015-Jul-21 09:33N 47°18' W 002°09'0 0.0
2015-Jul-21 08:33N 47°18' W 002°09'0 0.2
2015-Jul-21 07:33N 47°18' W 002°09'3 2.7
2015-Jul-21 06:33N 47°16' W 002°12'0 0.0
2015-Jul-21 05:33N 47°16' W 002°12'0 0.0
2015-Jul-21 04:29N 47°16' W 002°12'0 0.0
2015-Jul-21 03:33N 47°16' W 002°12'0 0.0
2015-Jul-21 02:33N 47°16' W 002°12'0 0.0
2015-Jul-21 01:31N 47°16' W 002°12'0 0.0
2015-Jul-21 00:33N 47°16' W 002°12'0 0.0
2015-Jul-20 23:32N 47°16' W 002°12'0 0.0
2015-Jul-20 20:10N 47°16' W 002°12'4 6.2
2015-Jul-20 19:33N 47°18' W 002°08'1 0.9
2015-Jul-20 18:33N 47°18' W 002°06'1 0.7
2015-Jul-20 17:33N 47°18' W 002°05'0 0.0
2015-Jul-20 16:34N 47°18' W 002°05'5 5.1
2015-Jul-20 15:33N 47°16' W 002°12'0 0.0
2015-Jul-20 14:33N 47°16' W 002°12'0 0.0
2015-Jul-20 13:31N 47°16' W 002°12'0 0.0
2015-Jul-20 12:31N 47°16' W 002°12'0 0.0
2015-Jul-20 11:30N 47°16' W 002°12'0 0.0
2015-Jul-20 10:32N 47°16' W 002°12'0 0.0
2015-Jul-20 09:25N 47°16' W 002°12'0 0.0
2015-Jul-20 07:33N 47°16' W 002°12'0 0.0
2015-Jul-19 20:33N 47°16' W 002°12'0 0.0
2015-Jul-19 14:33N 47°16' W 002°12'4 0.3
2015-Jul-19 00:33N 47°18' W 002°08'2 1.7
2015-Jul-18 23:31N 47°17' W 002°10'11 1.1
2015-Jul-18 13:23N 47°17' W 001°54'7 8.0
2015-Jul-18 12:30N 47°18' W 002°04'6 1.0
2015-Jul-18 06:15N 47°16' W 002°12'0 0.0
2015-Jul-18 05:32N 47°16' W 002°12'4 3.6
2015-Jul-18 04:33N 47°18' W 002°08'4 3.4
2015-Jul-18 03:30N 47°16' W 002°12'0 0.0
2015-Jul-18 02:30N 47°16' W 002°12'0 0.0
2015-Jul-18 01:06N 47°16' W 002°12'0 0.0
2015-Jul-18 00:33N 47°16' W 002°12'0 0.0
2015-Jul-17 23:33N 47°16' W 002°12'0 0.0
2015-Jul-17 22:32N 47°16' W 002°12'0 0.0
2015-Jul-17 21:33N 47°16' W 002°12'0 0.0
2015-Jul-17 18:03N 47°16' W 002°12'0 0.0
2015-Jul-17 16:11N 47°16' W 002°12'  
Track history (hours):
 
Tides and Currents Weather Stations Pressure Air Temp Water Temp Dewpoint Dewpoint Depression Visibility Wind Speed Wind Dir Waves Ship Positions

Vb Bretagne

Last reported at 2015-Jul-27 10:09 UTC. Time now 2015-Jul-28 17:48 UTC.
Position N 47°16' W 002°12'.

Length 32 m; draft 4.1 m.

Type: Tug. MMSI: 228234700.

Date/timePositionNaut miles runAvg speedWind from/ knotsBaromVisibWave heightAir tempDewpointWater temp
2015-Jul-27 10:09N 47°16' W 002°12'1 0.0
2015-Jul-26 07:14N 47°17' W 002°11'1 0.2
2015-Jul-26 02:16N 47°16' W 002°12'0 0.0
2015-Jul-26 01:12N 47°16' W 002°12'0 0.0
2015-Jul-26 00:23N 47°16' W 002°12'0 0.0
2015-Jul-25 23:20N 47°16' W 002°12'0 0.0
2015-Jul-25 22:17N 47°16' W 002°12'0 0.0
2015-Jul-25 21:05N 47°16' W 002°12'0 0.0
2015-Jul-25 19:24N 47°16' W 002°12'3 2.4
2015-Jul-25 18:18N 47°18' W 002°09'9 0.3
2015-Jul-24 08:29N 47°17' W 001°56'8 8.1
2015-Jul-24 07:33N 47°13' W 001°47'7 6.5
2015-Jul-24 06:33N 47°12' W 001°37'0 0.4
2015-Jul-24 05:33N 47°12' W 001°37'8 7.6
2015-Jul-24 04:32N 47°13' W 001°48'8 8.2
2015-Jul-24 03:33N 47°17' W 001°58'8 8.4
2015-Jul-24 02:33N 47°17' W 002°10'1 1.4
2015-Jul-24 01:33N 47°16' W 002°12'0 0.0
2015-Jul-24 00:33N 47°16' W 002°12'0 0.0
2015-Jul-23 23:33N 47°16' W 002°12'0 0.0
2015-Jul-23 22:33N 47°16' W 002°12'0 0.0
2015-Jul-23 21:33N 47°16' W 002°12'0 0.0
2015-Jul-23 20:33N 47°16' W 002°12'0 0.0
2015-Jul-23 19:32N 47°16' W 002°12'0 0.0
2015-Jul-23 18:32N 47°16' W 002°12'0 0.0
2015-Jul-23 17:08N 47°16' W 002°12'0 0.0
2015-Jul-23 09:24N 47°16' W 002°12'4 4.7
2015-Jul-23 08:28N 47°18' W 002°06'0 0.1
2015-Jul-23 07:33N 47°18' W 002°06'4 3.9
2015-Jul-23 06:27N 47°16' W 002°12'0 0.0
2015-Jul-23 05:31N 47°16' W 002°12'0 0.0
2015-Jul-23 04:30N 47°16' W 002°12'0 0.0
2015-Jul-23 03:32N 47°16' W 002°12'0 0.0
2015-Jul-23 02:32N 47°16' W 002°12'0 0.0
2015-Jul-23 01:25N 47°16' W 002°12'0 0.0
2015-Jul-23 00:23N 47°16' W 002°12'0 0.0
2015-Jul-22 23:12N 47°16' W 002°12'0 0.0
2015-Jul-22 21:22N 47°16' W 002°12'0 0.0
2015-Jul-22 07:16N 47°16' W 002°12'3 4.0
2015-Jul-22 06:33N 47°18' W 002°09'0 0.0
2015-Jul-22 05:25N 47°18' W 002°09'0 0.0
2015-Jul-22 04:32N 47°18' W 002°09'0 0.0
2015-Jul-22 03:33N 47°18' W 002°09'0 0.0
2015-Jul-22 02:26N 47°18' W 002°09'0 0.0
2015-Jul-22 01:33N 47°18' W 002°09'0 0.0
2015-Jul-22 00:33N 47°18' W 002°09'0 0.0
2015-Jul-21 23:33N 47°18' W 002°09'0 0.0
2015-Jul-21 22:33N 47°18' W 002°09'0 0.0
2015-Jul-21 21:33N 47°18' W 002°09'0 0.0
2015-Jul-21 20:31N 47°18' W 002°09'0 0.0
2015-Jul-21 19:31N 47°18' W 002°09'0 0.0
2015-Jul-21 18:32N 47°18' W 002°09'0 0.0
2015-Jul-21 17:33N 47°18' W 002°09'0 0.0
2015-Jul-21 16:33N 47°18' W 002°09'0 0.0
2015-Jul-21 15:33N 47°18' W 002°09'0 0.0
2015-Jul-21 14:33N 47°18' W 002°09'0 0.0
2015-Jul-21 13:32N 47°18' W 002°09'0 0.0
2015-Jul-21 12:33N 47°18' W 002°09'0 0.0
2015-Jul-21 11:32N 47°18' W 002°09'0 0.0
2015-Jul-21 10:33N 47°18' W 002°09'0 0.0
2015-Jul-21 09:33N 47°18' W 002°09'0 0.0
2015-Jul-21 08:33N 47°18' W 002°09'0 0.2
2015-Jul-21 07:33N 47°18' W 002°09'3 2.7
2015-Jul-21 06:33N 47°16' W 002°12'0 0.0
2015-Jul-21 05:33N 47°16' W 002°12'0 0.0
2015-Jul-21 04:29N 47°16' W 002°12'0 0.0
2015-Jul-21 03:33N 47°16' W 002°12'0 0.0
2015-Jul-21 02:33N 47°16' W 002°12'0 0.0
2015-Jul-21 01:31N 47°16' W 002°12'0 0.0
2015-Jul-21 00:33N 47°16' W 002°12'0 0.0
2015-Jul-20 23:32N 47°16' W 002°12'0 0.0
2015-Jul-20 20:10N 47°16' W 002°12'4 6.2
2015-Jul-20 19:33N 47°18' W 002°08'1 0.9
2015-Jul-20 18:33N 47°18' W 002°06'1 0.7
2015-Jul-20 17:33N 47°18' W 002°05'0 0.0
2015-Jul-20 16:34N 47°18' W 002°05'5 5.1
2015-Jul-20 15:33N 47°16' W 002°12'0 0.0
2015-Jul-20 14:33N 47°16' W 002°12'0 0.0
2015-Jul-20 13:31N 47°16' W 002°12'0 0.0
2015-Jul-20 12:31N 47°16' W 002°12'0 0.0
2015-Jul-20 11:30N 47°16' W 002°12'0 0.0
2015-Jul-20 10:32N 47°16' W 002°12'0 0.0
2015-Jul-20 09:25N 47°16' W 002°12'0 0.0
2015-Jul-20 07:33N 47°16' W 002°12'0 0.0
2015-Jul-19 20:33N 47°16' W 002°12'0 0.0
2015-Jul-19 14:33N 47°16' W 002°12'4 0.3
2015-Jul-19 00:33N 47°18' W 002°08'2 1.7
2015-Jul-18 23:31N 47°17' W 002°10'11 1.1
2015-Jul-18 13:23N 47°17' W 001°54'7 8.0
2015-Jul-18 12:30N 47°18' W 002°04'6 1.0
2015-Jul-18 06:15N 47°16' W 002°12'0 0.0
2015-Jul-18 05:32N 47°16' W 002°12'4 3.6
2015-Jul-18 04:33N 47°18' W 002°08'4 3.4
2015-Jul-18 03:30N 47°16' W 002°12'0 0.0
2015-Jul-18 02:30N 47°16' W 002°12'0 0.0
2015-Jul-18 01:06N 47°16' W 002°12'0 0.0
2015-Jul-18 00:33N 47°16' W 002°12'0 0.0
2015-Jul-17 23:33N 47°16' W 002°12'0 0.0
2015-Jul-17 22:32N 47°16' W 002°12'0 0.0
2015-Jul-17 21:33N 47°16' W 002°12'0 0.0
2015-Jul-17 18:03N 47°16' W 002°12'0 0.0
2015-Jul-17 16:11N 47°16' W 002°12'  

Dump ship's entire track history